createdAt,value
2023-01-19T00:02:01.126Z,98750.00
2023-01-19T00:04:33.497Z,98756.66
2023-01-19T00:07:05.893Z,98764.52
2023-01-19T00:09:38.586Z,98771.41
2023-01-19T00:12:11.227Z,98774.08
2023-01-19T00:14:43.704Z,98774.40
2023-01-19T00:17:16.205Z,98771.31
2023-01-19T00:19:48.550Z,98776.84
2023-01-19T00:22:20.975Z,98780.77
2023-01-19T00:24:53.451Z,98786.63
2023-01-19T00:27:25.953Z,98788.52
2023-01-19T00:29:58.255Z,98792.98
2023-01-19T00:32:30.543Z,98789.70
2023-01-19T00:35:02.772Z,98794.39
2023-01-19T00:37:35.108Z,98800.91
2023-01-19T00:40:10.014Z,98807.63
2023-01-19T00:42:44.696Z,98810.37
2023-01-19T00:45:19.500Z,98817.92
2023-01-19T00:47:57.406Z,98821.02
2023-01-19T00:50:31.831Z,98824.31
2023-01-19T00:53:04.182Z,98828.90
2023-01-19T00:55:36.592Z,98826.13
2023-01-19T00:58:09.046Z,98834.40
2023-01-19T01:00:41.584Z,98840.39
2023-01-19T01:03:14.014Z,98845.38
2023-01-19T01:05:46.471Z,98859.88
2023-01-19T01:08:18.799Z,98864.45
2023-01-19T01:10:51.444Z,98868.58
2023-01-19T01:13:26.400Z,98872.33
2023-01-19T01:16:00.163Z,98878.95
2023-01-19T01:18:32.562Z,98875.42
2023-01-19T01:21:06.607Z,98882.05
2023-01-19T01:23:39.305Z,98882.16
2023-01-19T01:26:11.805Z,98886.79
2023-01-19T01:28:44.231Z,98886.24
2023-01-19T01:31:16.668Z,98884.84
2023-01-19T01:33:49.119Z,98885.08
2023-01-19T01:36:22.067Z,98889.26
2023-01-19T01:38:54.421Z,98893.55
2023-01-19T01:41:27.487Z,98900.64
2023-01-19T01:44:01.884Z,98904.08
2023-01-19T01:46:35.065Z,98911.77
2023-01-19T01:49:13.598Z,98915.16
2023-01-19T01:51:49.822Z,98919.10
2023-01-19T01:54:27.184Z,98918.44
2023-01-19T01:57:04.042Z,98919.00
2023-01-19T01:59:39.484Z,98915.17
2023-01-19T02:02:34.236Z,98918.16
2023-01-19T02:05:10.729Z,98914.87
2023-01-19T02:08:06.907Z,98919.10
2023-01-19T02:10:57.225Z,98918.58
2023-01-19T02:13:31.318Z,98921.70
2023-01-19T02:16:07.609Z,98926.19
2023-01-19T02:18:40.936Z,98921.56
2023-01-19T02:21:20.254Z,98921.06
2023-01-19T02:23:54.862Z,98920.16
2023-01-19T02:26:32.355Z,98921.69
2023-01-19T02:29:07.286Z,98919.55
2023-01-19T02:31:41.631Z,98917.44
2023-01-19T02:34:16.849Z,98919.52
2023-01-19T02:36:53.650Z,98918.67
2023-01-19T02:39:32.348Z,98916.91
2023-01-19T02:42:07.876Z,98921.11
2023-01-19T02:44:42.850Z,98918.55
2023-01-19T02:47:15.423Z,98906.70
2023-01-19T02:49:55.097Z,98907.58
2023-01-19T02:52:29.243Z,98908.20
2023-01-19T02:55:19.535Z,98910.16
2023-01-19T02:58:03.143Z,98906.77
2023-01-19T03:00:45.890Z,98905.41
2023-01-19T03:03:31.492Z,98905.34
2023-01-19T03:06:11.238Z,98903.61
2023-01-19T03:08:49.520Z,98904.71
2023-01-19T03:11:21.974Z,98897.36
2023-01-19T03:14:00.976Z,98896.93
2023-01-19T03:16:42.120Z,98893.12
2023-01-19T03:19:19.295Z,98883.77
2023-01-19T03:21:55.788Z,98886.36
2023-01-19T03:24:34.211Z,98881.85
2023-01-19T03:27:11.622Z,98876.13
2023-01-19T03:29:50.986Z,98880.05
2023-01-19T03:32:30.369Z,98874.05
2023-01-19T03:35:06.200Z,98873.80
2023-01-19T03:37:42.360Z,98872.35
2023-01-19T03:40:15.617Z,98869.19
2023-01-19T03:42:50.277Z,98874.39
2023-01-19T03:45:23.861Z,98876.45
2023-01-19T03:47:57.713Z,98878.42
2023-01-19T03:50:32.115Z,98881.53
2023-01-19T03:53:08.891Z,98884.46
2023-01-19T03:55:44.176Z,98886.26
2023-01-19T03:58:15.348Z,98887.45
2023-01-19T04:00:47.991Z,98888.92
2023-01-19T04:03:21.043Z,98894.45
2023-01-19T04:05:53.550Z,98899.42
2023-01-19T04:08:25.890Z,98900.36
2023-01-19T04:11:00.362Z,98896.86
2023-01-19T04:13:32.889Z,98895.42
2023-01-19T04:16:06.479Z,98894.15
2023-01-19T04:18:39.122Z,98895.29
2023-01-19T04:21:11.566Z,98895.68
2023-01-19T04:23:44.513Z,98896.26
2023-01-19T04:26:16.978Z,98895.09
2023-01-19T04:28:49.684Z,98898.82
2023-01-19T04:31:23.385Z,98907.41
2023-01-19T04:33:56.786Z,98911.29
2023-01-19T04:36:29.440Z,98914.45
2023-01-19T04:39:01.942Z,98915.84
2023-01-19T04:41:34.320Z,98920.25
2023-01-19T04:44:08.810Z,98927.35
2023-01-19T04:46:41.471Z,98925.40
2023-01-19T04:49:14.059Z,98929.31
2023-01-19T04:51:46.570Z,98935.91
2023-01-19T04:54:19.024Z,98936.94
2023-01-19T04:56:51.577Z,98943.07
2023-01-19T04:59:24.077Z,98947.67
2023-01-19T05:01:57.347Z,98948.63
2023-01-19T05:04:30.254Z,98955.19
2023-01-19T05:07:02.627Z,98960.70
2023-01-19T05:09:35.547Z,98968.99
2023-01-19T05:12:08.570Z,98976.29
2023-01-19T05:14:40.949Z,98976.80
2023-01-19T05:17:13.424Z,98977.52
2023-01-19T05:19:45.796Z,98974.20
2023-01-19T05:22:18.511Z,98980.63
2023-01-19T05:24:50.927Z,98984.83
2023-01-19T05:27:23.359Z,98986.02
2023-01-19T05:29:55.904Z,98988.70
2023-01-19T05:32:28.282Z,98996.42
2023-01-19T05:35:00.666Z,99001.45
2023-01-19T05:37:33.023Z,98998.31
2023-01-19T05:40:06.193Z,99006.62
2023-01-19T05:42:38.972Z,99012.28
2023-01-19T05:45:13.674Z,99016.75
2023-01-19T05:47:45.996Z,99025.95
2023-01-19T05:50:18.727Z,99031.61
2023-01-19T05:52:53.367Z,99039.11
2023-01-19T05:55:25.727Z,99043.80
2023-01-19T05:57:58.156Z,99042.43
2023-01-19T06:00:30.556Z,99051.23
2023-01-19T06:03:03.386Z,99056.43
2023-01-19T06:05:39.282Z,99056.39
2023-01-19T06:08:11.845Z,99056.20
2023-01-19T06:10:44.169Z,99062.73
2023-01-19T06:13:16.460Z,99067.08
2023-01-19T06:15:49.152Z,99069.45
2023-01-19T06:18:21.591Z,99077.59
2023-01-19T06:20:58.730Z,99084.19
2023-01-19T06:23:33.920Z,99088.59
2023-01-19T06:26:04.753Z,99091.71
2023-01-19T06:28:37.288Z,99097.46
2023-01-19T06:31:09.898Z,99103.02
2023-01-19T06:33:42.389Z,99104.39
2023-01-19T06:36:14.782Z,99114.95
2023-01-19T06:38:47.565Z,99113.26
2023-01-19T06:41:19.960Z,99115.52
2023-01-19T06:43:52.308Z,99115.98
2023-01-19T06:46:24.691Z,99116.84
2023-01-19T06:48:57.272Z,99120.56
2023-01-19T06:51:29.710Z,99126.33
2023-01-19T06:54:02.645Z,99125.05
2023-01-19T06:56:35.119Z,99128.38
2023-01-19T06:59:08.546Z,99135.05
2023-01-19T07:01:40.912Z,99142.75
2023-01-19T07:04:15.278Z,99152.08
2023-01-19T07:06:47.662Z,99153.30
2023-01-19T07:09:20.562Z,99151.47
2023-01-19T07:11:55.174Z,99156.80
2023-01-19T07:14:33.642Z,99156.60
2023-01-19T07:17:06.047Z,99153.50
2023-01-19T07:19:38.590Z,99150.05
2023-01-19T07:22:11.077Z,99150.38
2023-01-19T07:24:43.360Z,99157.41
2023-01-19T07:27:16.561Z,99163.44
2023-01-19T07:29:48.823Z,99163.34
2023-01-19T07:32:21.251Z,99154.23
2023-01-19T07:34:53.622Z,99155.41
2023-01-19T07:37:26.043Z,99161.68
2023-01-19T07:39:58.443Z,99168.70
2023-01-19T07:42:30.765Z,99164.67
2023-01-19T07:45:03.139Z,99159.09
2023-01-19T07:47:35.618Z,99162.06
2023-01-19T07:50:09.804Z,99162.39
2023-01-19T07:52:42.308Z,99163.63
2023-01-19T07:55:14.658Z,99169.87
2023-01-19T07:57:49.390Z,99175.54
2023-01-19T08:00:25.336Z,99176.97
2023-01-19T08:03:02.812Z,99172.60
2023-01-19T08:05:36.033Z,99175.07
2023-01-19T08:08:11.670Z,99172.80
2023-01-19T08:10:44.055Z,99174.33
2023-01-19T08:13:16.445Z,99171.64
2023-01-19T08:15:52.568Z,99174.80
2023-01-19T08:18:24.979Z,99179.45
2023-01-19T08:20:59.351Z,99183.95
2023-01-19T08:23:31.659Z,99187.98
2023-01-19T08:26:18.336Z,99183.98
2023-01-19T08:28:50.709Z,99179.96
2023-01-19T08:31:24.894Z,99188.33
2023-01-19T08:33:57.584Z,99196.30
2023-01-19T08:36:30.508Z,99194.46
2023-01-19T08:39:02.884Z,99200.83
2023-01-19T08:41:35.435Z,99204.42
2023-01-19T08:44:08.117Z,99203.86
2023-01-19T08:46:40.562Z,99207.03
2023-01-19T08:49:13.297Z,99213.63
2023-01-19T08:51:47.566Z,99222.03
2023-01-19T08:54:21.862Z,99222.84
2023-01-19T08:56:54.284Z,99217.20
2023-01-19T08:59:26.782Z,99220.09
2023-01-19T09:01:59.264Z,99223.02
2023-01-19T09:04:33.125Z,99219.82
2023-01-19T09:09:43.499Z,99215.66
2023-01-19T09:12:16.741Z,99215.89
2023-01-19T09:14:49.089Z,99219.55
2023-01-19T09:17:21.592Z,99220.59
2023-01-19T09:19:54.228Z,99223.80
2023-01-19T09:22:26.846Z,99225.61
2023-01-19T09:24:59.228Z,99223.70
2023-01-19T09:27:31.873Z,99225.50
2023-01-19T09:30:04.552Z,99227.81
2023-01-19T09:32:36.899Z,99225.87
2023-01-19T09:35:11.482Z,99231.27
2023-01-19T09:37:46.723Z,99234.27
2023-01-19T09:40:19.548Z,99239.02
2023-01-19T09:42:57.094Z,99230.48
2023-01-19T09:45:37.613Z,99225.58
2023-01-19T09:48:37.696Z,99223.98
2023-01-19T09:51:16.153Z,99221.54
2023-01-19T09:53:58.919Z,99227.88
2023-01-19T09:56:32.909Z,99230.85
2023-01-19T09:59:16.432Z,99225.35
2023-01-19T10:02:00.196Z,99227.61
2023-01-19T10:04:36.178Z,99229.27
2023-01-19T10:07:31.439Z,99227.67
2023-01-19T10:10:17.769Z,99225.75
2023-01-19T10:13:01.541Z,99226.59
2023-01-19T10:15:46.725Z,99227.88
2023-01-19T10:18:25.787Z,99228.06
2023-01-19T10:21:05.711Z,99228.44
2023-01-19T10:23:45.204Z,99225.75
2023-01-19T10:26:23.179Z,99227.05
2023-01-19T10:29:02.933Z,99226.35
2023-01-19T10:31:39.105Z,99226.59
2023-01-19T10:34:21.560Z,99229.75
2023-01-19T10:37:03.873Z,99224.55
2023-01-19T10:39:38.719Z,99218.39
2023-01-19T10:42:17.743Z,99216.65
2023-01-19T10:44:50.866Z,99216.58
2023-01-19T10:47:31.212Z,99214.38
2023-01-19T10:50:23.813Z,99213.80
2023-01-19T10:52:58.474Z,99211.65
2023-01-19T10:55:33.574Z,99206.82
2023-01-19T10:58:07.462Z,99205.04
2023-01-19T11:00:44.157Z,99199.57
2023-01-19T11:03:26.240Z,99204.20
2023-01-19T11:06:20.549Z,99207.00
2023-01-19T11:08:54.377Z,99210.26
2023-01-19T11:11:27.496Z,99209.55
2023-01-19T11:14:10.967Z,99207.92
2023-01-19T11:16:47.440Z,99208.02
2023-01-19T11:19:28.421Z,99213.01
2023-01-19T11:22:21.742Z,99213.21
2023-01-19T11:24:54.233Z,99214.95
2023-01-19T11:27:27.250Z,99216.92
2023-01-19T11:30:09.893Z,99218.02
2023-01-19T11:32:43.164Z,99221.60
2023-01-19T11:35:34.950Z,99217.06
2023-01-19T11:38:18.391Z,99215.80
2023-01-19T11:40:55.499Z,99211.55
2023-01-19T11:43:43.511Z,99202.80
2023-01-19T11:46:21.749Z,99196.14
2023-01-19T11:49:02.102Z,99196.48
2023-01-19T11:51:41.388Z,99196.19
2023-01-19T11:54:23.853Z,99195.94
2023-01-19T11:56:59.355Z,99194.35
2023-01-19T11:59:31.774Z,99194.64
2023-01-19T12:02:12.684Z,99194.43
2023-01-19T12:04:46.839Z,99199.56
2023-01-19T12:07:26.200Z,99197.42
2023-01-19T12:10:07.509Z,99204.96
2023-01-19T12:12:41.724Z,99203.87
2023-01-19T12:15:26.492Z,99205.57
2023-01-19T12:18:02.210Z,99201.11
2023-01-19T12:20:39.043Z,99194.98
2023-01-19T12:23:31.304Z,99196.17
2023-01-19T12:26:27.967Z,99205.85
2023-01-19T12:29:06.929Z,99205.09
2023-01-19T12:31:40.905Z,99205.51
2023-01-19T12:34:40.964Z,99200.75
2023-01-19T12:37:38.076Z,99204.54
2023-01-19T12:40:31.683Z,99210.42
2023-01-19T12:43:06.801Z,99210.59
2023-01-19T12:45:39.925Z,99204.23
2023-01-19T12:48:28.676Z,99206.84
2023-01-19T12:51:01.910Z,99203.38
2023-01-19T12:53:35.076Z,99202.92
2023-01-19T12:56:11.756Z,99202.95
2023-01-19T12:58:52.010Z,99196.95
2023-01-19T13:01:25.301Z,99197.36
2023-01-19T13:04:28.995Z,99188.67
2023-01-19T13:07:17.001Z,99187.08
2023-01-19T13:09:49.761Z,99186.11
2023-01-19T13:12:27.669Z,99187.64
2023-01-19T13:15:35.529Z,99187.51
2023-01-19T13:18:11.449Z,99184.27
2023-01-19T13:20:54.237Z,99183.90
2023-01-19T13:23:29.678Z,99192.67
2023-01-19T13:26:15.500Z,99190.60
2023-01-19T13:28:51.941Z,99188.84
2023-01-19T13:31:25.533Z,99190.08
2023-01-19T13:34:01.258Z,99188.94
2023-01-19T13:36:44.896Z,99186.88
2023-01-19T13:39:24.282Z,99191.00
2023-01-19T13:42:00.380Z,99193.44
2023-01-19T13:44:37.343Z,99192.23
2023-01-19T13:47:14.027Z,99200.57
2023-01-19T13:49:49.442Z,99204.73
2023-01-19T13:52:25.338Z,99203.07
2023-01-19T13:55:02.906Z,99203.30
2023-01-19T13:57:41.432Z,99202.06
2023-01-19T14:00:22.593Z,99204.86
2023-01-19T14:02:59.024Z,99209.90
2023-01-19T14:05:34.254Z,99209.98
2023-01-19T14:08:14.069Z,99210.73
2023-01-19T14:10:48.297Z,99213.52
2023-01-19T14:13:23.117Z,99216.76
2023-01-19T14:15:59.291Z,99220.20
2023-01-19T14:18:33.286Z,99220.59
2023-01-19T14:21:08.903Z,99221.05
2023-01-19T14:23:48.340Z,99221.02
2023-01-19T14:26:57.497Z,99220.20
2023-01-19T14:29:33.103Z,99218.05
2023-01-19T14:32:20.777Z,99222.48
2023-01-19T14:35:13.666Z,99226.89
2023-01-19T14:37:51.419Z,99226.80
2023-01-19T14:40:25.576Z,99233.04
2023-01-19T14:43:03.192Z,99235.34
2023-01-19T14:45:38.649Z,99237.70
2023-01-19T14:48:18.931Z,99242.73
2023-01-19T14:51:02.891Z,99244.83
2023-01-19T14:53:38.852Z,99244.90
2023-01-19T14:56:11.510Z,99244.23
2023-01-19T14:58:43.828Z,99245.38
2023-01-19T15:01:16.468Z,99241.61
2023-01-19T15:03:48.976Z,99238.67
2023-01-19T15:06:23.261Z,99238.27
2023-01-19T15:08:56.505Z,99241.91
2023-01-19T15:11:32.428Z,99242.38
2023-01-19T15:14:05.245Z,99241.17
2023-01-19T15:16:37.737Z,99241.30
2023-01-19T15:19:13.767Z,99248.61
2023-01-19T15:21:47.061Z,99249.05
2023-01-19T15:24:19.441Z,99250.25
2023-01-19T15:26:52.050Z,99250.81
2023-01-19T15:29:29.196Z,99253.86
2023-01-19T15:32:02.421Z,99258.99
2023-01-19T15:34:34.838Z,99263.66
2023-01-19T15:37:07.174Z,99263.91
2023-01-19T15:39:39.878Z,99263.48
2023-01-19T15:42:15.733Z,99262.08
2023-01-19T15:44:48.149Z,99265.04
2023-01-19T15:47:20.790Z,99271.52
2023-01-19T15:49:53.969Z,99272.34
2023-01-19T15:52:26.402Z,99270.99
2023-01-19T15:54:58.793Z,99269.52
2023-01-19T15:57:31.166Z,99265.32
2023-01-19T16:00:03.822Z,99266.09
2023-01-19T16:02:42.349Z,99269.09
2023-01-19T16:05:14.916Z,99267.92
2023-01-19T16:07:47.265Z,99274.29
2023-01-19T16:10:19.806Z,99278.99
2023-01-19T16:12:52.188Z,99282.80
2023-01-19T16:15:25.505Z,99285.42
2023-01-19T16:17:58.448Z,99284.92
2023-01-19T16:20:30.748Z,99287.55
2023-01-19T16:23:14.879Z,99289.29
2023-01-19T16:25:55.846Z,99294.55
2023-01-19T16:28:28.803Z,99296.55
2023-01-19T16:31:01.123Z,99299.33
2023-01-19T16:33:33.510Z,99300.03
2023-01-19T16:36:20.153Z,99300.70
2023-01-19T16:38:53.017Z,99301.92
2023-01-19T16:41:25.491Z,99300.39
2023-01-19T16:43:59.176Z,99299.02
2023-01-19T16:46:34.110Z,99298.79
2023-01-19T16:49:10.770Z,99298.42
2023-01-19T16:51:43.279Z,99299.73
2023-01-19T16:54:18.360Z,99299.24
2023-01-19T16:56:49.199Z,99297.75
2023-01-19T16:59:22.907Z,99296.25
2023-01-19T17:01:56.097Z,99298.11
2023-01-19T17:04:28.649Z,99305.16
2023-01-19T17:07:01.127Z,99301.77
2023-01-19T17:09:34.139Z,99302.86
2023-01-19T17:12:09.287Z,99305.99
2023-01-19T17:14:43.239Z,99306.95
2023-01-19T17:17:15.864Z,99303.73
2023-01-19T17:19:48.287Z,99304.23
2023-01-19T17:22:20.594Z,99302.56
2023-01-19T17:24:52.928Z,99299.46
2023-01-19T17:27:25.282Z,99300.56
2023-01-19T17:29:57.603Z,99296.33
2023-01-19T17:32:30.614Z,99292.54
2023-01-19T17:35:03.087Z,99289.71
2023-01-19T17:37:35.719Z,99292.80
2023-01-19T17:40:13.030Z,99294.28
2023-01-19T17:42:45.636Z,99302.85
2023-01-19T17:45:18.280Z,99303.16
2023-01-19T17:47:52.069Z,99301.81
2023-01-19T17:50:24.545Z,99305.42
2023-01-19T17:52:57.225Z,99303.48
2023-01-19T17:55:29.728Z,99305.98
2023-01-19T17:58:02.539Z,99306.23
2023-01-19T18:00:34.966Z,99308.67
2023-01-19T18:03:07.531Z,99310.04
2023-01-19T18:05:39.945Z,99312.20
2023-01-19T18:08:12.349Z,99308.68
2023-01-19T18:10:44.836Z,99310.42
2023-01-19T18:13:17.265Z,99311.34
2023-01-19T18:15:49.691Z,99308.95
2023-01-19T18:18:22.136Z,99308.45
2023-01-19T18:20:54.612Z,99307.17
2023-01-19T18:23:27.169Z,99306.91
2023-01-19T18:26:04.450Z,99307.45
2023-01-19T18:28:37.463Z,99306.66
2023-01-19T18:31:11.844Z,99305.69
2023-01-19T18:33:45.357Z,99306.31
2023-01-19T18:36:17.955Z,99308.42
2023-01-19T18:38:50.746Z,99309.45
2023-01-19T18:41:24.250Z,99310.73
2023-01-19T18:44:00.061Z,99307.96
2023-01-19T18:46:32.557Z,99307.05
2023-01-19T18:49:05.459Z,99303.71
2023-01-19T18:51:39.677Z,99299.28
2023-01-19T18:54:12.645Z,99302.35
2023-01-19T18:56:45.010Z,99293.98
2023-01-19T18:59:17.496Z,99294.64
2023-01-19T19:01:49.965Z,99303.85
2023-01-19T19:04:22.439Z,99307.05
2023-01-19T19:06:54.937Z,99314.83
2023-01-19T19:09:27.798Z,99313.62
2023-01-19T19:12:00.831Z,99313.65
2023-01-19T19:14:34.257Z,99315.13
2023-01-19T19:17:06.860Z,99313.65
2023-01-19T19:19:39.418Z,99317.43
2023-01-19T19:22:11.795Z,99319.52
2023-01-19T19:24:44.368Z,99319.27
2023-01-19T19:27:17.871Z,99319.84
2023-01-19T19:29:50.263Z,99314.21
2023-01-19T19:32:22.768Z,99314.02
2023-01-19T19:34:56.779Z,99313.73
2023-01-19T19:37:29.667Z,99314.88
2023-01-19T19:40:02.033Z,99316.94
2023-01-19T19:42:36.656Z,99317.56
2023-01-19T19:45:10.971Z,99316.25
2023-01-19T19:47:44.059Z,99319.23
2023-01-19T19:50:16.768Z,99323.19
2023-01-19T19:52:49.270Z,99323.33
2023-01-19T19:55:21.678Z,99321.46
2023-01-19T19:57:54.973Z,99319.27
2023-01-19T20:00:27.861Z,99320.23
2023-01-19T20:03:00.305Z,99316.59
2023-01-19T20:05:32.676Z,99319.48
2023-01-19T20:08:05.175Z,99316.04
2023-01-19T20:10:37.676Z,99318.71
2023-01-19T20:13:10.179Z,99316.31
2023-01-19T20:15:42.581Z,99313.27
2023-01-19T20:18:15.130Z,99313.54
2023-01-19T20:20:47.682Z,99319.29
2023-01-19T20:23:20.209Z,99319.11
2023-01-19T20:25:52.807Z,99321.04
2023-01-19T20:28:26.053Z,99324.70
2023-01-19T20:31:08.670Z,99329.33
2023-01-19T20:33:41.268Z,99329.80
2023-01-19T20:36:13.927Z,99327.34
2023-01-19T20:38:46.887Z,99329.34
2023-01-19T20:41:20.028Z,99331.36
2023-01-19T20:43:53.119Z,99335.33
2023-01-19T20:46:25.622Z,99340.00
2023-01-19T20:48:58.057Z,99346.65
2023-01-19T20:51:30.613Z,99349.78
2023-01-19T20:54:02.948Z,99350.42
2023-01-19T20:56:35.315Z,99351.83
2023-01-19T20:59:07.817Z,99356.17
2023-01-19T21:01:41.737Z,99354.30
2023-01-19T21:04:14.797Z,99356.45
2023-01-19T21:06:47.239Z,99360.61
2023-01-19T21:09:19.802Z,99365.77
2023-01-19T21:11:52.266Z,99365.05
2023-01-19T21:14:24.706Z,99369.26
2023-01-19T21:16:58.622Z,99369.45
2023-01-19T21:19:31.184Z,99374.19
2023-01-19T21:22:03.527Z,99374.02
2023-01-19T21:24:36.033Z,99371.89
2023-01-19T21:27:08.527Z,99377.16
2023-01-19T21:29:41.362Z,99375.36
2023-01-19T21:32:13.760Z,99379.02
2023-01-19T21:34:46.985Z,99378.32
2023-01-19T21:37:19.324Z,99376.73
2023-01-19T21:39:51.673Z,99378.83
2023-01-19T21:42:24.351Z,99378.40
2023-01-19T21:44:56.747Z,99384.61
2023-01-19T21:47:29.227Z,99383.64
2023-01-19T21:50:02.284Z,99380.88
2023-01-19T21:52:34.639Z,99382.54
2023-01-19T21:55:09.803Z,99383.20
2023-01-19T21:57:40.688Z,99390.85
2023-01-19T22:00:15.985Z,99392.80
2023-01-19T22:03:02.477Z,99395.60
2023-01-19T22:05:38.165Z,99397.06
2023-01-19T22:08:10.816Z,99401.90
2023-01-19T22:10:43.266Z,99398.60
2023-01-19T22:13:15.746Z,99399.93
2023-01-19T22:15:48.088Z,99405.70
2023-01-19T22:18:21.000Z,99407.74
2023-01-19T22:20:53.374Z,99407.27
2023-01-19T22:23:25.721Z,99404.88
2023-01-19T22:26:01.764Z,99407.38
2023-01-19T22:28:34.643Z,99408.09
2023-01-19T22:31:10.006Z,99410.02
2023-01-19T22:33:43.393Z,99416.08
2023-01-19T22:36:19.543Z,99418.12
2023-01-19T22:38:56.889Z,99418.50
2023-01-19T22:41:30.685Z,99423.16
2023-01-19T22:44:04.602Z,99424.86
2023-01-19T22:46:38.297Z,99432.78
2023-01-19T22:49:11.930Z,99430.19
2023-01-19T22:51:44.687Z,99435.80
2023-01-19T22:54:17.186Z,99440.36
2023-01-19T22:56:49.611Z,99442.28
2023-01-19T22:59:22.013Z,99442.10
2023-01-19T23:01:54.587Z,99444.67
2023-01-19T23:04:27.125Z,99449.15
2023-01-19T23:06:59.443Z,99450.56
2023-01-19T23:09:31.909Z,99451.13
2023-01-19T23:12:04.564Z,99458.98
2023-01-19T23:14:37.143Z,99458.80
2023-01-19T23:17:09.618Z,99460.34
2023-01-19T23:19:42.143Z,99463.55
2023-01-19T23:22:14.708Z,99466.88
2023-01-19T23:24:47.095Z,99465.64
2023-01-19T23:27:19.626Z,99469.40
2023-01-19T23:29:51.896Z,99473.04
2023-01-19T23:32:24.266Z,99476.94
2023-01-19T23:34:56.765Z,99477.67
2023-01-19T23:37:29.148Z,99480.94
2023-01-19T23:40:01.463Z,99482.39
2023-01-19T23:42:33.833Z,99480.92
2023-01-19T23:45:07.332Z,99484.49
2023-01-19T23:47:43.291Z,99486.42
2023-01-19T23:50:15.870Z,99488.17
2023-01-19T23:52:48.098Z,99491.06
2023-01-19T23:55:20.484Z,99493.07
2023-01-19T23:57:52.734Z,99493.48
